Time;durP1;ratioP1;P1;durP2;ratioP2;P2;SDS_P1;SDS_P2;PMS_P1;PMS_P2;Temp;Humidity;BMP_temperature;BMP_pressure;BME280_temperature;BME280_humidity;BME280_pressure;Samples;Min_cycle;Max_cycle;Signal;HPM_P1;HPM_P2
2022/04/26 06:06:51;;;;;;;101.15;25.77;;;;;;;23.71;18.55;101038.66;5124046;27;20404;-59
2022/04/26 06:09:19;;;;;;;76.82;25.17;;;;;;;22.45;19.72;101051.09;5130442;28;20059;-58
2022/04/26 06:11:46;;;;;;;87.20;24.70;;;;;;;21.69;21.42;101053.91;5129660;28;20031;-58
2022/04/26 06:14:14;;;;;;;91.53;26.63;;;;;;;21.21;21.66;101052.25;5129602;28;20397;-58
2022/04/26 06:16:41;;;;;;;96.53;26.77;;;;;;;20.92;22.23;101044.63;5120159;27;20507;-58
2022/04/26 06:19:08;;;;;;;85.30;26.17;;;;;;;20.85;22.59;101046.28;5115230;27;20477;-59
2022/04/26 06:21:35;;;;;;;89.43;26.17;;;;;;;20.81;22.68;101046.09;5115473;27;21106;-58
2022/04/26 06:24:02;;;;;;;97.80;24.88;;;;;;;20.73;22.80;101050.50;5105335;27;20410;-59
2022/04/26 06:26:29;;;;;;;92.53;23.40;;;;;;;20.63;22.83;101042.53;5112666;27;20040;-59
2022/04/26 06:28:56;;;;;;;101.68;24.60;;;;;;;20.44;23.66;101053.06;5116858;27;20043;-59
2022/04/26 06:31:22;;;;;;;98.45;25.30;;;;;;;20.23;24.68;101045.38;5116616;27;20026;-59
2022/04/26 06:33:49;;;;;;;84.80;26.05;;;;;;;20.17;23.15;101049.44;5114867;27;20031;-59
2022/04/26 06:36:16;;;;;;;96.10;27.42;;;;;;;20.17;22.76;101043.91;5112737;27;20035;-58
2022/04/26 06:38:43;;;;;;;90.40;27.38;;;;;;;20.16;23.02;101049.75;5094019;27;20508;-59
2022/04/26 06:41:09;;;;;;;109.40;26.13;;;;;;;20.21;23.17;101038.56;5113091;27;20019;-58
2022/04/26 06:43:39;;;;;;;104.22;28.95;;;;;;;20.18;23.80;101045.53;5115013;27;20039;-60
2022/04/26 06:46:06;;;;;;;91.10;26.88;;;;;;;20.17;23.45;101045.84;5098638;27;20039;-58
2022/04/26 06:48:32;;;;;;;89.30;25.73;;;;;;;20.06;23.06;101041.75;5100207;27;20488;-58
2022/04/26 06:50:59;;;;;;;90.50;25.95;;;;;;;19.95;23.39;101044.03;5098709;27;20056;-59
2022/04/26 06:53:26;;;;;;;93.28;26.52;;;;;;;19.89;24.02;101042.53;5116963;27;20066;-57
2022/04/26 06:55:53;;;;;;;78.32;25.83;;;;;;;19.89;23.82;101039.75;5121373;27;20106;-57
2022/04/26 06:58:19;;;;;;;80.85;25.45;;;;;;;19.86;23.94;101048.69;5112629;27;20035;-58
2022/04/26 07:00:47;;;;;;;109.25;25.73;;;;;;;19.79;24.94;101048.34;5113821;27;20039;-58
2022/04/26 07:03:14;;;;;;;85.00;25.10;;;;;;;19.76;24.47;101044.28;5121831;27;20035;-57
2022/04/26 07:05:41;;;;;;;81.63;25.17;;;;;;;19.78;24.72;101047.53;5100007;27;20371;-57
2022/04/26 07:08:08;;;;;;;87.63;25.40;;;;;;;19.73;24.48;101049.59;5112812;27;20434;-57
2022/04/26 07:10:38;;;;;;;86.32;26.17;;;;;;;19.65;25.29;101047.63;5118258;27;20040;-58
2022/04/26 07:13:05;;;;;;;77.40;24.08;;;;;;;19.54;25.33;101053.41;5116001;27;20047;-57
2022/04/26 07:15:31;;;;;;;87.53;23.60;;;;;;;19.50;25.68;101051.56;5115770;27;20045;-57
2022/04/26 07:17:58;;;;;;;75.22;23.20;;;;;;;19.54;24.70;101058.91;5120192;27;20039;-57
2022/04/26 07:20:27;;;;;;;84.43;21.98;;;;;;;19.50;25.26;101057.09;5109179;27;20028;-58
2022/04/26 07:22:55;;;;;;;80.63;21.58;;;;;;;19.47;24.53;101061.28;5112961;28;20038;-57
2022/04/26 07:25:22;;;;;;;73.70;21.30;;;;;;;19.39;24.50;101062.06;5114036;28;20032;-57
2022/04/26 07:27:49;;;;;;;70.82;22.23;;;;;;;19.35;24.95;101061.06;5115069;28;20031;-57
2022/04/26 07:30:15;;;;;;;70.28;25.23;;;;;;;19.33;23.81;101053.09;5115256;28;20130;-57
2022/04/26 07:35:27;;;;;;;60.45;20.15;;;;;;;19.28;24.87;101055.19;5115304;28;20043;-58
2022/04/26 07:37:54;;;;;;;53.42;19.38;;;;;;;19.30;24.87;101052.94;5113999;28;20031;-57
2022/04/26 07:40:21;;;;;;;55.60;17.70;;;;;;;19.27;24.51;101059.06;5114015;28;20485;-57
2022/04/26 07:42:48;;;;;;;51.55;18.25;;;;;;;19.28;23.97;101050.50;5114280;28;20080;-57
2022/04/26 07:45:16;;;;;;;48.42;17.88;;;;;;;19.21;24.58;101049.28;5114493;28;20030;-57
2022/04/26 07:47:42;;;;;;;56.55;18.45;;;;;;;19.05;24.33;101046.13;5114696;28;20039;-58
2022/04/26 07:50:09;;;;;;;52.28;16.65;;;;;;;18.97;25.20;101047.69;5114842;28;20084;-57
2022/04/26 07:52:36;;;;;;;40.92;15.85;;;;;;;18.95;24.16;101040.88;5115032;28;20031;-58
2022/04/26 07:55:04;;;;;;;48.63;16.60;;;;;;;18.89;24.26;101039.38;5098430;28;20019;-58
2022/04/26 07:57:31;;;;;;;45.50;15.27;;;;;;;18.83;26.01;101052.44;5114431;28;20131;-58
2022/04/26 07:59:58;;;;;;;36.30;13.75;;;;;;;18.81;25.92;101046.41;5114799;28;20528;-58
2022/04/26 08:02:25;;;;;;;39.20;13.60;;;;;;;18.83;24.83;101049.69;5115062;28;20054;-57
2022/04/26 08:04:53;;;;;;;44.70;13.90;;;;;;;18.80;24.86;101049.50;5114824;28;20562;-58
2022/04/26 08:07:19;;;;;;;41.28;14.50;;;;;;;18.75;24.18;101042.19;5114757;28;20039;-57
2022/04/26 08:09:46;;;;;;;38.85;14.40;;;;;;;18.63;25.25;101039.16;5114188;28;20039;-57
2022/04/26 08:12:13;;;;;;;43.10;14.32;;;;;;;18.60;24.45;101045.25;5115458;28;20122;-57
2022/04/26 08:14:40;;;;;;;48.65;13.65;;;;;;;18.53;24.98;101039.38;5114529;28;20028;-58
2022/04/26 08:17:07;;;;;;;39.67;12.85;;;;;;;18.46;25.80;101044.47;5114573;28;20463;-57
2022/04/26 08:19:33;;;;;;;42.67;12.85;;;;;;;18.39;25.75;101040.22;5114620;28;20031;-58
2022/04/26 08:22:00;;;;;;;44.20;12.85;;;;;;;18.51;25.62;101036.94;5113637;28;20040;-57
2022/04/26 08:27:29;;;;;;;41.20;12.93;;;;;;;18.40;25.97;101033.59;5114044;28;20036;-59
2022/04/26 08:30:02;;;;;;;37.85;12.25;;;;;;;18.36;25.99;101032.59;5111730;28;20492;-59
2022/04/26 08:32:48;;;;;;;42.05;12.75;;;;;;;18.37;26.44;101027.88;5113727;28;20070;-59
2022/04/26 08:35:18;;;;;;;36.25;12.77;;;;;;;18.40;25.90;101025.31;5099369;28;20031;-57
2022/04/26 08:37:45;;;;;;;34.47;13.23;;;;;;;18.44;25.40;101014.50;5114245;28;20028;-58
2022/04/26 08:40:13;;;;;;;43.28;12.93;;;;;;;18.39;26.00;101012.69;5113991;28;20062;-59
2022/04/26 08:42:42;;;;;;;33.17;11.63;;;;;;;18.35;26.44;101014.44;5114170;28;20100;-57
2022/04/26 08:45:14;;;;;;;27.52;10.38;;;;;;;18.37;24.85;101014.94;5114145;28;20613;-59
2022/04/26 08:53:16;;;;;;;18.65;8.52;;;;;;;18.46;23.79;101016.94;5098785;28;20084;-58
2022/04/26 08:55:45;;;;;;;27.25;8.35;;;;;;;18.46;24.43;101004.00;5113751;28;20039;-58
2022/04/26 08:58:14;;;;;;;22.10;7.88;;;;;;;18.46;23.80;101004.00;5113842;28;20031;-58
2022/04/26 09:01:03;;;;;;;20.40;7.60;;;;;;;18.43;23.65;101001.88;5113921;28;20053;-58
2022/04/26 09:03:40;;;;;;;21.63;6.68;;;;;;;18.31;23.99;100994.19;5113891;28;20030;-58
2022/04/26 09:06:15;;;;;;;23.60;7.57;;;;;;;18.23;24.33;100999.59;5113623;28;20073;-58
2022/04/26 09:08:44;;;;;;;19.48;7.22;;;;;;;18.23;24.72;100994.09;5113349;28;20036;-58
2022/04/26 09:11:27;;;;;;;18.00;6.53;;;;;;;18.23;25.96;100992.16;5113515;28;20389;-58
2022/04/26 09:13:55;;;;;;;13.65;6.70;;;;;;;18.11;27.90;100989.91;5113648;28;20460;-58
2022/04/26 09:16:22;;;;;;;18.73;7.03;;;;;;;18.10;25.68;100990.22;5113603;28;20354;-58
2022/04/26 09:19:01;;;;;;;20.02;7.03;;;;;;;18.09;24.60;100991.34;5113455;28;20393;-58
2022/04/26 09:21:29;;;;;;;16.40;7.07;;;;;;;18.24;23.30;100988.28;5113793;28;20117;-58
2022/04/26 09:24:01;;;;;;;17.38;6.93;;;;;;;18.30;23.36;100987.03;5113366;28;20074;-57
2022/04/26 09:26:40;;;;;;;18.92;7.20;;;;;;;18.32;23.42;100989.50;5113232;28;20148;-57
2022/04/26 09:29:08;;;;;;;13.95;7.07;;;;;;;18.30;23.14;100987.03;5097255;28;20035;-58
2022/04/26 09:31:39;;;;;;;17.70;6.25;;;;;;;18.28;23.79;100989.28;5112284;28;20040;-59
2022/04/26 09:34:14;;;;;;;14.68;6.10;;;;;;;18.24;23.64;100988.28;5113371;28;20115;-58
2022/04/26 09:36:45;;;;;;;15.70;6.57;;;;;;;18.34;24.01;101001.81;5113266;28;20088;-58
2022/04/26 09:39:18;;;;;;;18.30;6.45;;;;;;;18.16;24.27;101002.78;5113291;28;20457;-58
2022/04/26 09:41:52;;;;;;;15.68;6.32;;;;;;;17.96;24.14;100995.78;5112885;28;20032;-57
2022/04/26 09:44:33;;;;;;;26.58;6.40;;;;;;;17.77;25.70;100995.06;5113138;28;20091;-58
2022/04/26 09:47:00;;;;;;;15.40;6.60;;;;;;;17.76;25.16;100994.25;5113473;28;20070;-58
2022/04/26 09:49:36;;;;;;;19.98;6.20;;;;;;;17.81;25.09;100999.66;5113353;28;20434;-58
2022/04/26 09:52:03;;;;;;;17.52;6.88;;;;;;;17.82;24.86;100997.72;5113188;28;20073;-58
2022/04/26 09:54:31;;;;;;;17.27;6.43;;;;;;;17.65;25.27;100998.31;5113181;28;20115;-58
2022/04/26 09:56:59;;;;;;;24.35;6.80;;;;;;;17.62;24.99;100993.41;5112930;28;20110;-58
2022/04/26 09:59:30;;;;;;;21.50;6.95;;;;;;;17.59;26.15;100983.00;5112414;28;20035;-59
2022/04/26 10:01:58;;;;;;;16.08;6.65;;;;;;;17.55;25.94;100983.94;5112851;28;20104;-59
2022/04/26 10:04:31;;;;;;;11.75;6.38;;;;;;;17.52;25.88;100975.19;5112802;28;20031;-57
2022/04/26 10:07:12;;;;;;;18.55;7.03;;;;;;;17.59;25.93;100982.19;5112536;28;20058;-59
2022/04/26 10:09:40;;;;;;;19.98;6.55;;;;;;;17.65;25.35;100975.50;5112827;28;20028;-59
2022/04/26 10:12:07;;;;;;;24.05;7.03;;;;;;;17.66;27.01;100977.13;5112927;28;20032;-58
2022/04/26 10:14:35;;;;;;;23.98;6.40;;;;;;;17.55;27.17;100973.75;5112391;28;20044;-58
2022/04/26 10:17:02;;;;;;;23.15;6.88;;;;;;;17.44;28.33;100975.09;5096111;28;20024;-57
2022/04/26 10:19:40;;;;;;;18.50;6.68;;;;;;;17.49;26.63;100972.25;5112792;28;20044;-57
2022/04/26 10:22:08;;;;;;;9.85;4.43;;;;;;;18.02;23.08;100967.03;5112825;28;20035;-58
2022/04/26 10:24:36;;;;;;;14.32;4.97;;;;;;;18.29;22.01;100960.63;5112739;28;20024;-57
2022/04/26 10:27:23;;;;;;;10.50;4.03;;;;;;;18.65;21.46;100959.81;5096113;28;20031;-57
2022/04/26 10:29:50;;;;;;;10.70;4.07;;;;;;;18.83;21.51;100960.75;5112600;28;20031;-58
2022/04/26 10:32:34;;;;;;;12.85;4.70;;;;;;;18.90;21.33;100956.44;5112638;28;20059;-58
2022/04/26 10:35:26;;;;;;;9.55;4.40;;;;;;;18.97;21.85;100958.72;5112692;28;20035;-58
2022/04/26 10:38:12;;;;;;;17.13;4.32;;;;;;;19.06;21.47;100969.81;5112542;28;20489;-58
2022/04/26 10:40:57;;;;;;;7.57;4.18;;;;;;;19.14;21.75;100958.03;5107171;28;20032;-57
2022/04/26 10:43:24;;;;;;;13.13;4.35;;;;;;;19.04;22.18;100961.88;5094375;28;20388;-58
2022/04/26 10:46:10;;;;;;;9.13;4.13;;;;;;;19.01;21.57;100962.47;5112271;28;20040;-58
2022/04/26 10:48:37;;;;;;;14.27;4.63;;;;;;;18.97;21.14;100972.50;5094303;28;20036;-58
2022/04/26 10:51:38;;;;;;;7.25;3.72;;;;;;;19.47;20.48;100964.81;5112595;28;20540;-57
2022/04/26 10:54:05;;;;;;;10.35;4.05;;;;;;;19.04;21.37;100972.06;5116455;28;20042;-58
2022/04/26 10:56:33;;;;;;;16.77;4.05;;;;;;;19.04;21.31;100966.56;5116466;28;20089;-57
2022/04/26 10:59:00;;;;;;;10.18;4.35;;;;;;;18.66;21.41;100972.44;5115954;28;20024;-58
2022/04/26 11:01:30;;;;;;;9.55;4.15;;;;;;;18.46;22.67;100973.72;5116212;28;20138;-58
2022/04/26 11:03:58;;;;;;;18.08;4.30;;;;;;;18.36;23.03;100972.03;5116302;28;20031;-58
2022/04/26 11:06:51;;;;;;;11.95;4.07;;;;;;;18.24;21.95;100971.75;5115859;28;20113;-58
2022/04/26 11:09:18;;;;;;;13.30;3.95;;;;;;;17.94;22.67;100973.25;5098103;28;20043;-58
2022/04/26 11:11:52;;;;;;;11.45;4.20;;;;;;;17.81;23.06;100982.34;5115599;28;20511;-58
2022/04/26 11:14:20;;;;;;;11.65;4.00;;;;;;;17.73;23.54;100985.81;5116251;28;20040;-58
2022/04/26 11:16:58;;;;;;;15.55;4.30;;;;;;;17.43;25.59;100973.47;5115855;28;20047;-58
2022/04/26 11:19:32;;;;;;;14.85;4.25;;;;;;;17.22;24.60;100982.06;5116148;28;20504;-57
2022/04/26 11:22:08;;;;;;;12.90;4.20;;;;;;;17.10;24.99;100987.25;5115685;28;20146;-58
2022/04/26 11:30:10;;;;;;;13.32;4.13;;;;;;;17.07;24.36;100984.31;5115862;28;20177;-58
2022/04/26 11:32:42;;;;;;;11.85;4.65;;;;;;;16.95;25.26;100990.25;5115588;28;20024;-58
2022/04/26 11:35:15;;;;;;;12.90;4.18;;;;;;;16.87;25.46;100979.94;5115652;28;20616;-58
2022/04/26 11:37:50;;;;;;;10.05;4.00;;;;;;;16.81;24.64;100979.22;5115361;28;20054;-59
2022/04/26 11:40:24;;;;;;;12.55;4.13;;;;;;;16.80;25.37;100988.59;5115398;28;20031;-57
2022/04/26 11:42:51;;;;;;;9.75;4.60;;;;;;;16.74;25.62;100984.31;5115294;28;20119;-59
2022/04/26 11:45:19;;;;;;;14.07;4.28;;;;;;;16.69;25.79;100987.09;5115269;28;20024;-58
2022/04/26 11:47:49;;;;;;;10.85;4.50;;;;;;;16.82;23.99;100969.06;5115122;28;20024;-58
2022/04/26 11:50:22;;;;;;;9.77;3.90;;;;;;;16.71;24.31;100978.59;5115499;28;20046;-59
2022/04/26 11:52:51;;;;;;;10.65;4.55;;;;;;;16.73;24.45;100981.84;5115351;28;20050;-58
2022/04/26 11:55:31;;;;;;;9.88;4.20;;;;;;;17.01;24.75;100978.06;5115078;28;20075;-59
2022/04/26 11:58:16;;;;;;;12.82;4.75;;;;;;;17.05;24.64;100979.09;5115255;28;20036;-59
2022/04/26 12:00:53;;;;;;;14.17;4.33;;;;;;;16.83;24.61;100976.19;5115183;28;20524;-59
2022/04/26 12:03:22;;;;;;;14.02;4.75;;;;;;;16.63;24.46;100982.78;5114754;28;20055;-58
2022/04/26 12:05:55;;;;;;;12.48;4.50;;;;;;;16.53;24.79;100983.78;5114609;28;20054;-58
2022/04/26 12:08:23;;;;;;;12.68;4.57;;;;;;;16.49;24.29;100981.91;5114747;28;20036;-58
2022/04/26 12:10:50;;;;;;;16.80;4.75;;;;;;;16.46;24.26;100983.31;5113372;28;20066;-58
2022/04/26 12:13:30;;;;;;;19.35;5.35;;;;;;;16.47;24.00;100989.63;5096800;28;20035;-58
2022/04/26 12:16:14;;;;;;;17.02;5.18;;;;;;;16.58;23.71;100986.44;5114597;28;20039;-59
2022/04/26 12:18:55;;;;;;;14.10;5.40;;;;;;;16.39;24.76;100993.88;5096538;28;20028;-58
2022/04/26 12:21:29;;;;;;;16.48;5.28;;;;;;;16.16;26.19;100994.75;5114742;28;20035;-58
2022/04/26 12:24:12;;;;;;;20.08;5.57;;;;;;;16.02;25.77;100998.22;5114422;28;20394;-59
2022/04/26 12:26:59;;;;;;;13.40;5.13;;;;;;;16.05;25.90;101002.28;5114245;28;20081;-59
2022/04/26 12:29:29;;;;;;;19.23;5.95;;;;;;;16.12;25.53;100993.69;5114796;28;20023;-58
2022/04/26 12:31:56;;;;;;;20.38;7.50;;;;;;;16.14;25.39;100994.22;5113894;28;20035;-58
2022/04/26 12:34:24;;;;;;;18.88;8.48;;;;;;;16.03;26.04;100990.81;5113985;28;20020;-58
2022/04/26 12:36:59;;;;;;;28.60;11.70;;;;;;;16.13;24.52;100995.31;5113753;28;20036;-58
2022/04/26 12:39:41;;;;;;;27.73;11.63;;;;;;;16.46;23.86;100993.50;5114008;28;20084;-58
2022/04/26 12:42:12;;;;;;;32.42;12.50;;;;;;;16.53;24.36;101000.25;5113991;28;20046;-58
2022/04/26 12:45:03;;;;;;;28.58;10.25;;;;;;;16.63;24.00;100994.59;5111013;28;20405;-57
2022/04/26 12:50:28;;;;;;;24.08;10.27;;;;;;;16.35;25.37;101003.00;5098223;28;20023;-58
2022/04/26 12:53:25;;;;;;;24.38;10.10;;;;;;;16.28;25.55;101003.34;5113796;28;20084;-58
2022/04/26 12:55:53;;;;;;;27.80;10.55;;;;;;;16.35;26.68;101009.28;5103113;28;20040;-58
2022/04/26 12:58:37;;;;;;;30.52;11.45;;;;;;;16.32;25.77;101007.13;5111177;28;20469;-59
2022/04/26 13:01:06;;;;;;;33.22;11.90;;;;;;;16.29;27.11;101000.31;5111543;28;20028;-57
2022/04/26 13:03:34;;;;;;;34.30;12.25;;;;;;;16.20;26.72;101001.28;5113857;28;20092;-57
2022/04/26 13:06:08;;;;;;;28.92;11.20;;;;;;;16.17;29.14;101012.84;5112438;28;20040;-57
2022/04/26 13:08:36;;;;;;;31.05;12.75;;;;;;;16.11;27.07;101005.78;5112660;28;20031;-57
2022/04/26 13:11:04;;;;;;;32.15;13.63;;;;;;;16.13;29.02;101006.28;5110627;28;20028;-56
2022/04/26 13:13:33;;;;;;;33.60;15.05;;;;;;;16.34;26.83;101018.63;5112741;28;20554;-57
2022/04/26 13:16:00;;;;;;;54.38;15.52;;;;;;;16.32;27.11;101004.38;5109961;28;20041;-58
2022/04/26 13:18:28;;;;;;;45.17;15.40;;;;;;;16.42;26.86;101020.69;5113218;28;20059;-57
2022/04/26 13:20:57;;;;;;;48.67;18.05;;;;;;;16.51;26.99;101012.59;5094911;28;20065;-56
2022/04/26 13:23:25;;;;;;;61.40;22.83;;;;;;;16.59;27.08;101025.66;5113152;28;20084;-59
2022/04/26 13:25:52;;;;;;;52.20;23.02;;;;;;;16.60;27.24;101021.81;5113289;28;20035;-59
2022/04/26 13:28:19;;;;;;;55.67;24.15;;;;;;;16.72;27.22;101024.13;5094955;28;20024;-59
2022/04/26 13:30:46;;;;;;;61.50;24.40;;;;;;;16.80;26.21;101020.69;5112985;28;20039;-59
2022/04/26 13:33:13;;;;;;;58.03;26.00;;;;;;;16.85;26.06;101023.34;5095049;28;20106;-58
2022/04/26 13:35:40;;;;;;;71.43;23.52;;;;;;;16.99;26.18;101024.22;5113038;28;20493;-57
2022/04/26 13:38:14;;;;;;;53.65;20.88;;;;;;;17.20;25.40;101022.75;5113225;28;20040;-58
2022/04/26 13:40:42;;;;;;;71.18;22.15;;;;;;;17.40;26.33;101018.00;5111373;28;20039;-58
2022/04/26 13:43:10;;;;;;;63.75;22.15;;;;;;;17.45;25.43;101032.50;5111247;28;20118;-58
2022/04/26 13:45:38;;;;;;;60.15;22.45;;;;;;;17.59;25.86;101031.66;5110411;28;20080;-58
2022/04/26 13:48:11;;;;;;;57.13;21.38;;;;;;;17.63;26.17;101039.03;5110563;28;20104;-58
2022/04/26 13:50:39;;;;;;;60.70;22.20;;;;;;;17.70;25.89;101044.94;5108295;28;20540;-58
2022/04/26 13:53:06;;;;;;;63.65;21.92;;;;;;;17.82;26.67;101041.72;5110817;28;20066;-58
2022/04/26 13:55:34;;;;;;;78.28;20.45;;;;;;;18.06;26.20;101038.72;5111715;28;20493;-58
2022/04/26 13:58:03;;;;;;;58.38;19.50;;;;;;;18.36;24.65;101034.53;5112035;28;20101;-57
2022/04/26 14:00:34;;;;;;;60.35;18.77;;;;;;;18.59;24.92;101038.13;5112539;28;20391;-57
2022/04/26 14:03:00;;;;;;;59.67;18.35;;;;;;;18.80;23.37;101041.22;5111084;28;20035;-57
2022/04/26 14:05:27;;;;;;;65.07;19.15;;;;;;;19.05;24.73;101043.38;5112146;28;20553;-57
2022/04/26 14:07:54;;;;;;;65.38;19.17;;;;;;;19.27;24.12;101040.59;5111923;28;20515;-57
2022/04/26 14:10:21;;;;;;;66.82;18.60;;;;;;;19.56;23.88;101042.88;5107838;28;20550;-57
2022/04/26 14:12:47;;;;;;;63.88;18.13;;;;;;;19.76;23.73;101046.22;5099335;28;20501;-58
2022/04/26 14:23:33;;;;;;;53.75;19.17;;;;;;;20.65;22.64;101048.56;5111196;28;20413;-58
2022/04/26 14:26:00;;;;;;;67.28;18.50;;;;;;;20.78;22.40;101052.28;5111836;28;20887;-58
2022/04/26 14:28:27;;;;;;;48.83;16.80;;;;;;;20.98;21.88;101045.28;5105328;28;20381;-58
2022/04/26 14:30:54;;;;;;;51.08;16.35;;;;;;;21.26;21.21;101052.09;5115654;28;20035;-58
2022/04/26 14:33:21;;;;;;;59.25;16.02;;;;;;;21.51;20.05;101055.09;5116843;28;20020;-58
2022/04/26 14:35:47;;;;;;;43.33;13.50;;;;;;;21.87;18.63;101049.91;5115711;28;20501;-58
2022/04/26 14:38:14;;;;;;;50.20;14.20;;;;;;;22.20;18.09;101052.06;5088376;28;20051;-57
2022/04/26 14:40:41;;;;;;;43.90;13.35;;;;;;;22.47;18.60;101051.56;5112469;28;20024;-58
2022/04/26 14:43:09;;;;;;;54.00;15.57;;;;;;;22.76;17.83;101058.16;5116495;28;20370;-58
2022/04/26 14:45:44;;;;;;;39.20;12.63;;;;;;;22.98;17.73;101051.47;5116240;28;20477;-60
2022/04/26 14:48:11;;;;;;;42.55;14.10;;;;;;;23.25;17.51;101052.84;5105461;27;20407;-58
2022/04/26 14:50:39;;;;;;;40.50;14.20;;;;;;;23.56;18.19;101050.38;5112849;27;20027;-59
2022/04/26 14:53:06;;;;;;;47.42;14.90;;;;;;;23.89;18.77;101055.88;5117324;27;20043;-59
2022/04/26 14:55:33;;;;;;;46.17;14.38;;;;;;;24.10;17.27;101061.31;5110239;27;20557;-59
2022/04/26 14:58:00;;;;;;;48.92;14.40;;;;;;;24.26;17.47;101048.34;5111141;27;20035;-59
2022/04/26 15:00:26;;;;;;;82.13;19.70;;;;;;;24.44;18.90;101048.13;5115623;28;20028;-59
2022/04/26 15:02:53;;;;;;;95.57;22.90;;;;;;;24.49;20.34;101053.41;5114945;28;20024;-59
2022/04/26 15:05:20;;;;;;;93.65;23.73;;;;;;;24.46;20.11;101060.50;5115329;28;20051;-57
2022/04/26 15:10:32;;;;;;;79.57;21.25;;;;;;;24.68;18.92;101053.59;5115581;28;20028;-60
2022/04/26 15:18:29;;;;;;;76.78;21.08;;;;;;;25.10;18.30;101053.22;5113834;28;19916;-57
2022/04/26 15:20:56;;;;;;;89.03;21.55;;;;;;;25.22;17.69;101058.75;5114196;28;20082;-58
2022/04/26 15:23:23;;;;;;;76.22;19.20;;;;;;;25.37;17.74;101062.72;5114002;28;20018;-57
2022/04/26 15:25:53;;;;;;;56.42;16.33;;;;;;;25.49;17.39;101052.31;5114246;28;20118;-58
2022/04/26 15:28:21;;;;;;;64.80;15.43;;;;;;;25.63;16.53;101056.63;5115100;28;20039;-58
2022/04/26 15:30:48;;;;;;;52.08;16.05;;;;;;;25.76;18.03;101060.97;5114919;28;20034;-57
2022/04/26 15:33:19;;;;;;;72.88;17.17;;;;;;;25.88;15.18;101056.13;5115547;28;20032;-58
2022/04/26 15:35:47;;;;;;;77.35;17.90;;;;;;;25.94;15.37;101047.50;5115448;28;20040;-57
2022/04/26 15:38:13;;;;;;;68.22;17.00;;;;;;;26.04;16.79;101050.56;5115409;28;20034;-57
2022/04/26 15:40:43;;;;;;;74.68;17.10;;;;;;;26.13;15.51;101047.56;5115249;28;20023;-58
2022/04/26 15:43:10;;;;;;;59.60;16.98;;;;;;;26.22;16.70;101048.19;5115451;28;20435;-58
2022/04/26 15:45:36;;;;;;;63.47;16.48;;;;;;;26.39;15.08;101046.97;5115384;28;20028;-58
2022/04/26 15:48:06;;;;;;;60.60;16.70;;;;;;;26.46;14.90;101053.53;5115503;28;20385;-58
2022/04/26 15:50:33;;;;;;;54.63;16.15;;;;;;;26.70;15.52;101052.44;5115479;28;20378;-58
2022/04/26 15:53:01;;;;;;;61.60;16.20;;;;;;;27.02;15.40;101052.31;5115301;28;20023;-58
2022/04/26 15:55:27;;;;;;;61.20;15.70;;;;;;;27.22;14.13;101045.53;5115251;28;20048;-57
2022/04/26 15:57:54;;;;;;;47.17;16.63;;;;;;;27.32;14.65;101042.16;5115108;28;20039;-58
2022/04/26 16:00:21;;;;;;;60.30;15.68;;;;;;;27.40;14.73;101041.09;5115211;28;20034;-57
2022/04/26 16:02:48;;;;;;;68.68;18.15;;;;;;;27.61;15.51;101043.44;5115118;28;20499;-57
2022/04/26 16:05:16;;;;;;;68.45;17.35;;;;;;;27.80;14.98;101048.19;5114902;28;20044;-58
2022/04/26 16:07:43;;;;;;;65.13;16.95;;;;;;;27.87;13.62;101042.72;5114615;28;20040;-57
2022/04/26 16:21:11;;;;;;;60.00;16.23;;;;;;;28.51;13.04;101054.06;5099358;28;20036;-58
2022/04/26 16:23:38;;;;;;;63.55;15.88;;;;;;;28.71;12.81;101046.34;5114636;28;20032;-59
2022/04/26 16:26:06;;;;;;;79.05;15.50;;;;;;;29.14;12.68;101048.50;5114672;28;20027;-59
2022/04/26 16:28:35;;;;;;;50.72;14.75;;;;;;;29.47;12.48;101052.47;5114584;28;20046;-59
2022/04/26 16:31:03;;;;;;;56.17;14.25;;;;;;;29.77;13.38;101044.69;5097605;28;20073;-57
2022/04/26 16:33:31;;;;;;;67.82;14.35;;;;;;;29.71;12.33;101042.66;5114472;28;20069;-59
2022/04/26 16:35:58;;;;;;;55.05;13.48;;;;;;;29.75;12.29;101038.69;5114323;28;20043;-58
2022/04/26 16:38:25;;;;;;;55.72;12.73;;;;;;;30.01;11.85;101046.09;5114321;28;20039;-57
2022/04/26 16:40:52;;;;;;;53.50;13.95;;;;;;;30.35;13.56;101037.53;5114003;28;20027;-60
2022/04/26 16:43:19;;;;;;;48.40;13.90;;;;;;;30.59;12.63;101038.84;5114502;28;20435;-57
2022/04/26 16:45:48;;;;;;;52.55;12.43;;;;;;;30.92;13.15;101035.00;5114289;28;20524;-57
2022/04/26 16:48:16;;;;;;;52.22;11.27;;;;;;;31.07;11.92;101033.06;5096048;28;20042;-60
2022/04/26 16:50:43;;;;;;;32.10;8.35;;;;;;;31.07;13.06;101033.84;5113750;28;20419;-60
2022/04/26 16:53:10;;;;;;;24.50;6.32;;;;;;;31.04;11.38;101033.81;5114184;28;20030;-59
2022/04/26 16:55:37;;;;;;;21.05;5.97;;;;;;;30.88;11.46;101026.59;5113965;28;20435;-57
2022/04/26 16:58:04;;;;;;;19.88;6.10;;;;;;;30.53;11.16;101027.22;5114197;28;20027;-59
2022/04/26 17:00:31;;;;;;;18.77;6.05;;;;;;;30.45;11.38;101030.38;5113956;28;20076;-60
2022/04/26 17:02:57;;;;;;;25.70;5.78;;;;;;;30.66;11.40;101034.09;5114030;28;20067;-59
2022/04/26 17:05:26;;;;;;;12.68;5.15;;;;;;;31.10;12.46;101027.44;5113697;28;20048;-59
2022/04/26 17:07:57;;;;;;;13.93;4.85;;;;;;;31.44;11.17;101019.50;5113348;28;20081;-59
2022/04/26 17:10:24;;;;;;;15.95;5.63;;;;;;;31.73;11.80;101016.72;5112713;28;20032;-59
2022/04/26 17:12:52;;;;;;;16.38;5.47;;;;;;;31.17;10.13;101021.84;5113632;28;20081;-59
2022/04/26 17:15:22;;;;;;;20.77;5.93;;;;;;;30.87;11.04;101019.34;5113558;28;20153;-59
2022/04/26 17:17:49;;;;;;;15.73;5.82;;;;;;;30.88;12.51;101029.41;5113518;28;20031;-60
2022/04/26 17:20:16;;;;;;;15.77;5.13;;;;;;;30.93;10.78;101023.38;5113474;28;20047;-59
2022/04/26 17:22:44;;;;;;;15.15;5.45;;;;;;;30.72;10.48;101022.53;5113485;28;20036;-60
2022/04/26 17:25:14;;;;;;;16.38;5.82;;;;;;;30.76;10.49;101029.75;5113655;28;20031;-60
2022/04/26 17:27:42;;;;;;;17.90;5.47;;;;;;;31.17;10.38;101026.66;5113634;28;20034;-60
2022/04/26 17:30:10;;;;;;;18.80;6.05;;;;;;;31.62;11.06;101019.50;5113484;28;20020;-59
2022/04/26 17:32:37;;;;;;;19.92;5.25;;;;;;;31.74;13.16;101013.50;5113483;28;20031;-59
2022/04/26 17:35:05;;;;;;;8.23;4.32;;;;;;;31.84;12.76;101009.88;5113227;28;20037;-59
2022/04/26 17:37:32;;;;;;;10.65;4.38;;;;;;;32.15;11.87;101013.06;5113302;28;20030;-60
2022/04/26 17:39:59;;;;;;;18.23;5.47;;;;;;;32.28;10.36;101016.25;5112890;28;20027;-59
2022/04/26 17:42:28;;;;;;;15.77;4.72;;;;;;;32.43;8.85;101004.53;5113273;28;20024;-60
2022/04/26 17:44:57;;;;;;;15.93;4.95;;;;;;;32.43;9.89;101006.56;5113086;28;20115;-59
2022/04/26 17:47:24;;;;;;;14.55;4.93;;;;;;;32.36;11.83;101015.03;5113143;28;20028;-59
2022/04/26 17:49:51;;;;;;;10.00;4.38;;;;;;;32.27;11.30;101009.81;5113050;28;20093;-59
2022/04/26 17:52:18;;;;;;;11.63;4.30;;;;;;;32.28;10.31;101005.00;5113136;28;20031;-59
2022/04/26 17:57:34;;;;;;;13.45;4.63;;;;;;;32.37;9.76;101003.38;5074936;28;20046;-60
2022/04/26 18:00:02;;;;;;;14.95;4.88;;;;;;;32.14;9.00;100997.38;5112738;28;20024;-59
2022/04/26 18:02:39;;;;;;;21.33;4.97;;;;;;;32.50;11.25;100995.28;5113123;28;20047;-59
2022/04/26 18:05:08;;;;;;;14.88;4.82;;;;;;;32.73;11.95;101001.19;5094812;28;20405;-59
2022/04/26 18:07:35;;;;;;;13.07;4.60;;;;;;;32.96;9.68;100994.25;5095279;28;20953;-58
2022/04/26 18:10:02;;;;;;;12.50;4.38;;;;;;;33.29;10.27;100985.19;5112603;28;20023;-58
2022/04/26 18:12:29;;;;;;;9.57;4.28;;;;;;;33.57;9.24;100992.63;5112885;28;20012;-59
2022/04/26 18:14:56;;;;;;;12.88;4.10;;;;;;;33.68;7.76;100977.66;5112599;28;20038;-59
2022/04/26 18:17:23;;;;;;;10.75;4.70;;;;;;;33.50;8.45;100983.44;5110066;28;20533;-59
2022/04/26 18:19:50;;;;;;;9.55;3.70;;;;;;;33.40;7.82;100982.31;5112751;28;20024;-59
2022/04/26 18:22:17;;;;;;;11.27;4.32;;;;;;;33.74;8.97;100976.75;5112967;28;20063;-59